createdAt,value
2018-02-23T00:00:03.436Z,0
2018-02-23T00:01:03.471Z,0
2018-02-23T00:02:03.415Z,0
2018-02-23T00:03:03.382Z,0
2018-02-23T00:04:02.858Z,0
2018-02-23T00:05:03.345Z,0
2018-02-23T00:06:03.332Z,0
2018-02-23T00:07:03.313Z,0
2018-02-23T00:08:03.052Z,0
2018-02-23T00:09:03.264Z,0
2018-02-23T00:10:03.002Z,0
2018-02-23T00:11:03.249Z,0
2018-02-23T00:12:02.963Z,0
2018-02-23T00:13:03.214Z,0
2018-02-23T00:14:03.186Z,0
2018-02-23T00:15:03.188Z,0
2018-02-23T00:16:02.893Z,0
2018-02-23T00:17:02.868Z,0
2018-02-23T00:18:03.140Z,0
2018-02-23T00:19:02.837Z,0
2018-02-23T00:20:02.560Z,0
2018-02-23T00:21:02.807Z,0
2018-02-23T00:22:02.771Z,0
2018-02-23T00:23:03.039Z,0
2018-02-23T00:24:02.783Z,0
2018-02-23T00:25:03.043Z,0
2018-02-23T00:26:02.725Z,0
2018-02-23T00:27:02.972Z,0
2018-02-23T00:28:02.945Z,0
2018-02-23T00:29:02.933Z,0
2018-02-23T00:30:02.660Z,0
2018-02-23T00:31:02.894Z,0
2018-02-23T00:32:02.617Z,0
2018-02-23T00:33:03.150Z,0
2018-02-23T00:34:02.331Z,0
2018-02-23T00:35:02.822Z,0
2018-02-23T00:36:02.541Z,0
2018-02-23T00:37:02.783Z,0
2018-02-23T00:38:02.247Z,0
2018-02-23T00:39:02.743Z,0
2018-02-23T00:40:02.456Z,0
2018-02-23T00:41:02.692Z,0
2018-02-23T00:42:02.437Z,0
2018-02-23T00:43:02.680Z,0
2018-02-23T00:44:02.396Z,0
2018-02-23T00:45:02.715Z,0
2018-02-23T00:46:02.367Z,0
2018-02-23T00:47:02.605Z,0
2018-02-23T00:48:02.562Z,0
2018-02-23T00:49:02.566Z,0
2018-02-23T00:50:02.288Z,0
2018-02-23T00:51:02.526Z,0
2018-02-23T00:52:02.248Z,0
2018-02-23T00:53:02.482Z,0
2018-02-23T00:54:02.460Z,0
2018-02-23T00:55:02.463Z,0
2018-02-23T00:56:01.907Z,0
2018-02-23T00:57:02.413Z,0
2018-02-23T00:58:02.393Z,0
2018-02-23T00:59:02.389Z,0
2018-02-23T01:00:02.368Z,0
2018-02-23T01:01:02.357Z,0
2018-02-23T01:02:02.338Z,0
2018-02-23T01:03:02.050Z,0
2018-02-23T01:04:02.338Z,0
2018-02-23T01:05:02.275Z,0
2018-02-23T01:06:02.253Z,0
2018-02-23T01:07:02.226Z,0
2018-02-23T01:08:01.970Z,0
2018-02-23T01:09:02.183Z,0
2018-02-23T01:10:01.663Z,0
2018-02-23T01:11:02.164Z,0
2018-02-23T01:12:02.180Z,0
2018-02-23T01:13:02.109Z,0
2018-02-23T01:14:02.120Z,0
2018-02-23T01:15:02.116Z,0
2018-02-23T01:16:02.101Z,0
2018-02-23T01:17:01.796Z,0
2018-02-23T01:18:01.512Z,0
2018-02-23T01:19:01.762Z,0
2018-02-23T01:20:02.000Z,0
2018-02-23T01:21:01.721Z,0
2018-02-23T01:22:01.967Z,0
2018-02-23T01:23:01.938Z,0
2018-02-23T01:24:01.679Z,0
2018-02-23T01:25:02.139Z,0
2018-02-23T01:26:01.893Z,0
2018-02-23T01:27:01.868Z,0
2018-02-23T01:28:01.572Z,0
2018-02-23T01:29:01.834Z,0
2018-02-23T01:30:01.798Z,0
2018-02-23T01:31:01.791Z,0
2018-02-23T01:32:01.760Z,0
2018-02-23T01:33:01.566Z,0
2018-02-23T01:34:01.484Z,0
2018-02-23T01:35:01.727Z,0
2018-02-23T01:36:01.430Z,0
2018-02-23T01:37:01.683Z,0
2018-02-23T01:38:01.409Z,0
2018-02-23T01:39:01.658Z,0
2018-02-23T01:40:01.642Z,0
2018-02-23T01:41:01.598Z,0
2018-02-23T01:42:01.612Z,0
2018-02-23T01:43:01.567Z,0
2018-02-23T01:44:01.557Z,0
2018-02-23T01:45:01.538Z,0
2018-02-23T01:46:01.516Z,0
2018-02-23T01:47:01.233Z,0
2018-02-23T01:48:01.204Z,0
2018-02-23T01:49:01.457Z,0
2018-02-23T01:50:01.426Z,0
2018-02-23T01:51:01.161Z,0
2018-02-23T01:52:01.424Z,0
2018-02-23T01:53:01.394Z,0
2018-02-23T01:54:01.377Z,0
2018-02-23T01:55:01.118Z,0
2018-02-23T01:56:01.323Z,0
2018-02-23T01:57:01.311Z,0
2018-02-23T01:58:01.048Z,0
2018-02-23T01:59:01.288Z,0
2018-02-23T02:00:01.266Z,0
2018-02-23T02:01:01.252Z,0
2018-02-23T02:02:01.221Z,0
2018-02-23T02:03:01.197Z,0
2018-02-23T02:04:01.189Z,0
2018-02-23T02:05:00.916Z,0
2018-02-23T02:06:01.250Z,0
2018-02-23T02:07:01.122Z,0
2018-02-23T02:08:01.141Z,0
2018-02-23T02:09:01.157Z,0
2018-02-23T02:10:01.060Z,0
2018-02-23T02:11:01.063Z,0
2018-02-23T02:12:01.037Z,0
2018-02-23T02:13:01.011Z,0
2018-02-23T02:14:00.987Z,0
2018-02-23T02:15:00.964Z,0
2018-02-23T02:16:00.450Z,0
2018-02-23T02:17:00.940Z,0
2018-02-23T02:18:00.659Z,0
2018-02-23T02:19:00.908Z,0
2018-02-23T02:20:00.881Z,0
2018-02-23T02:21:00.335Z,0
2018-02-23T02:22:00.841Z,0
2018-02-23T02:23:00.839Z,0
2018-02-23T02:24:00.860Z,0
2018-02-23T02:25:00.542Z,0
2018-02-23T02:26:00.762Z,0
2018-02-23T02:27:01.003Z,0
2018-02-23T02:28:00.728Z,0
2018-02-23T02:29:00.727Z,0
2018-02-23T02:30:00.698Z,0
2018-02-23T02:31:00.431Z,0
2018-02-23T02:32:00.663Z,0
2018-02-23T02:33:00.651Z,0
2018-02-23T02:34:00.658Z,0
2018-02-23T02:35:00.614Z,0
2018-02-23T02:36:00.597Z,0
2018-02-23T02:37:00.564Z,0
2018-02-23T02:38:00.544Z,0
2018-02-23T02:39:00.553Z,0
2018-02-23T02:40:00.510Z,0
2018-02-23T02:41:00.525Z,0
2018-02-23T02:42:00.222Z,0
2018-02-23T02:43:00.879Z,0
2018-02-23T02:44:00.422Z,0
2018-02-23T02:45:00.447Z,0
2018-02-23T02:46:00.162Z,0
2018-02-23T02:47:00.107Z,0
2018-02-23T02:48:00.351Z,0
2018-02-23T02:49:00.343Z,0
2018-02-23T02:50:00.325Z,0
2018-02-23T02:51:00.305Z,0
2018-02-23T02:52:00.300Z,0
2018-02-23T02:53:00.312Z,0
2018-02-23T02:54:00.260Z,0
2018-02-23T02:55:00.249Z,0
2018-02-23T02:56:00.225Z,0
2018-02-23T02:57:00.196Z,0
2018-02-23T02:58:00.424Z,0
2018-02-23T02:59:00.165Z,0
2018-02-23T03:00:00.151Z,0
2018-02-23T03:00:59.868Z,0
2018-02-23T03:02:00.144Z,0
2018-02-23T03:03:00.098Z,0
2018-02-23T03:03:59.813Z,0
2018-02-23T03:04:59.767Z,0
2018-02-23T03:05:59.506Z,0
2018-02-23T03:06:59.744Z,0
2018-02-23T03:07:59.993Z,0
2018-02-23T03:08:59.975Z,0
2018-02-23T03:09:59.928Z,0
2018-02-23T03:10:59.929Z,0
2018-02-23T03:11:59.672Z,0
2018-02-23T03:12:59.880Z,0
2018-02-23T03:13:59.880Z,0
2018-02-23T03:14:59.865Z,0
2018-02-23T03:15:59.849Z,0
2018-02-23T03:16:59.818Z,0
2018-02-23T03:17:59.804Z,0
2018-02-23T03:18:59.771Z,0
2018-02-23T03:19:59.756Z,0
2018-02-23T03:20:59.733Z,0
2018-02-23T03:21:59.204Z,0
2018-02-23T03:22:59.444Z,0
2018-02-23T03:23:59.676Z,0
2018-02-23T03:24:59.394Z,0
2018-02-23T03:25:59.126Z,0
2018-02-23T03:26:59.755Z,0
2018-02-23T03:27:59.615Z,0
2018-02-23T03:28:59.591Z,0
2018-02-23T03:29:59.810Z,0
2018-02-23T03:30:59.562Z,0
2018-02-23T03:31:59.259Z,0
2018-02-23T03:32:59.505Z,0
2018-02-23T03:33:59.478Z,0
2018-02-23T03:34:59.210Z,0
2018-02-23T03:35:59.512Z,0
2018-02-23T03:36:59.452Z,0
2018-02-23T03:37:59.418Z,0
2018-02-23T03:38:59.432Z,0
2018-02-23T03:39:59.377Z,0
2018-02-23T03:40:59.088Z,0
2018-02-23T03:41:59.334Z,0
2018-02-23T03:42:59.308Z,0
2018-02-23T03:43:59.289Z,0
2018-02-23T03:44:59.276Z,0
2018-02-23T03:45:59.280Z,0
2018-02-23T03:46:59.227Z,0
2018-02-23T03:47:58.960Z,0
2018-02-23T03:48:58.957Z,0
2018-02-23T03:49:59.195Z,0
2018-02-23T03:50:59.167Z,0
2018-02-23T03:51:59.154Z,0
2018-02-23T03:52:59.178Z,0
2018-02-23T03:53:59.109Z,0
2018-02-23T03:54:59.092Z,0
2018-02-23T03:55:59.060Z,0
2018-02-23T03:56:59.091Z,0
2018-02-23T03:57:59.039Z,0
2018-02-23T03:58:58.760Z,0
2018-02-23T03:59:59.007Z,0
2018-02-23T04:00:59.226Z,0
2018-02-23T04:01:58.701Z,0
2018-02-23T04:02:58.698Z,0
2018-02-23T04:03:58.679Z,0
2018-02-23T04:04:58.637Z,0
2018-02-23T04:05:58.873Z,0
2018-02-23T04:06:58.861Z,0
2018-02-23T04:07:58.850Z,0
2018-02-23T04:08:58.831Z,0
2018-02-23T04:09:58.535Z,0
2018-02-23T04:10:58.790Z,0
2018-02-23T04:11:58.791Z,0
2018-02-23T04:12:58.748Z,0
2018-02-23T04:13:58.478Z,0
2018-02-23T04:14:58.453Z,0
2018-02-23T04:15:58.442Z,0
2018-02-23T04:16:58.665Z,0
2018-02-23T04:17:58.651Z,0
2018-02-23T04:18:58.370Z,0
2018-02-23T04:19:58.630Z,0
2018-02-23T04:20:58.586Z,0
2018-02-23T04:21:58.589Z,0
2018-02-23T04:22:58.575Z,0
2018-02-23T04:23:58.277Z,0
2018-02-23T04:24:58.267Z,0
2018-02-23T04:25:58.503Z,0
2018-02-23T04:26:58.477Z,0
2018-02-23T04:27:57.933Z,0
2018-02-23T04:28:58.440Z,0
2018-02-23T04:29:58.417Z,0
2018-02-23T04:30:58.408Z,0
2018-02-23T04:31:58.649Z,0
2018-02-23T04:32:58.372Z,0
2018-02-23T04:33:58.327Z,0
2018-02-23T04:34:58.331Z,0
2018-02-23T04:35:58.305Z,0
2018-02-23T04:36:58.291Z,0
2018-02-23T04:37:58.256Z,0
2018-02-23T04:38:58.256Z,0
2018-02-23T04:39:58.242Z,0
2018-02-23T04:40:57.961Z,0
2018-02-23T04:41:58.197Z,0
2018-02-23T04:42:58.165Z,0
2018-02-23T04:43:58.154Z,0
2018-02-23T04:44:58.141Z,0
2018-02-23T04:45:58.111Z,0
2018-02-23T04:46:58.107Z,0
2018-02-23T04:47:57.818Z,0
2018-02-23T04:48:58.046Z,0
2018-02-23T04:49:58.047Z,0
2018-02-23T04:50:58.020Z,0
2018-02-23T04:51:57.996Z,0
2018-02-23T04:52:57.973Z,0
2018-02-23T04:53:57.966Z,0
2018-02-23T04:54:57.955Z,0
2018-02-23T04:55:57.969Z,0
2018-02-23T04:56:57.642Z,0
2018-02-23T04:57:57.876Z,0
2018-02-23T04:58:57.860Z,0
2018-02-23T04:59:57.846Z,0
2018-02-23T05:00:57.055Z,0
2018-02-23T05:01:57.816Z,0
2018-02-23T05:02:57.779Z,0
2018-02-23T05:03:57.769Z,0
2018-02-23T05:04:57.800Z,0
2018-02-23T05:05:57.732Z,0
2018-02-23T05:06:57.470Z,0
2018-02-23T05:07:57.435Z,0
2018-02-23T05:08:57.680Z,0
2018-02-23T05:09:57.644Z,0
2018-02-23T05:10:57.744Z,0
2018-02-23T05:11:57.610Z,0
2018-02-23T05:12:57.601Z,0
2018-02-23T05:13:57.576Z,0
2018-02-23T05:14:57.568Z,0
2018-02-23T05:15:57.522Z,0
2018-02-23T05:16:56.755Z,0
2018-02-23T05:17:57.506Z,0
2018-02-23T05:18:57.207Z,0
2018-02-23T05:19:57.210Z,0
2018-02-23T05:20:57.435Z,0
2018-02-23T05:21:57.158Z,0
2018-02-23T05:22:57.411Z,0
2018-02-23T05:23:57.403Z,0
2018-02-23T05:24:57.360Z,0
2018-02-23T05:25:57.084Z,0
2018-02-23T05:26:57.067Z,0
2018-02-23T05:27:57.296Z,0
2018-02-23T05:28:57.269Z,0
2018-02-23T05:29:57.330Z,0
2018-02-23T05:30:56.988Z,0
2018-02-23T05:31:56.722Z,0
2018-02-23T05:32:56.961Z,0
2018-02-23T05:33:57.460Z,0
2018-02-23T05:34:57.180Z,0
2018-02-23T05:35:56.894Z,0
2018-02-23T05:36:57.122Z,0
2018-02-23T05:37:57.105Z,0
2018-02-23T05:38:57.082Z,0
2018-02-23T05:39:56.811Z,0
2018-02-23T05:40:57.040Z,0
2018-02-23T05:41:57.020Z,0
2018-02-23T05:42:57.006Z,0
2018-02-23T05:43:56.983Z,0
2018-02-23T05:44:56.987Z,0
2018-02-23T05:45:56.955Z,0
2018-02-23T05:46:56.945Z,0
2018-02-23T05:47:56.916Z,0
2018-02-23T05:48:56.629Z,0
2018-02-23T05:49:56.607Z,0
2018-02-23T05:50:56.925Z,0
2018-02-23T05:51:56.844Z,0
2018-02-23T05:52:56.802Z,0
2018-02-23T05:53:56.790Z,0
2018-02-23T05:54:56.794Z,5
2018-02-23T05:55:56.497Z,5
2018-02-23T05:56:56.747Z,5
2018-02-23T05:57:56.712Z,5
2018-02-23T05:58:56.441Z,5
2018-02-23T05:59:56.451Z,5
2018-02-23T06:00:56.394Z,5
2018-02-23T06:01:56.368Z,10
2018-02-23T06:02:56.357Z,10
2018-02-23T06:03:56.345Z,10
2018-02-23T06:04:56.572Z,10
2018-02-23T06:05:56.817Z,10
2018-02-23T06:06:56.540Z,15
2018-02-23T06:07:56.270Z,15
2018-02-23T06:08:56.516Z,15
2018-02-23T06:09:56.474Z,15
2018-02-23T06:10:56.461Z,20
2018-02-23T06:11:55.908Z,20
2018-02-23T06:12:56.207Z,20
2018-02-23T06:13:56.399Z,25
2018-02-23T06:14:56.386Z,25
2018-02-23T06:15:56.367Z,25
2018-02-23T06:16:56.080Z,30
2018-02-23T06:17:56.326Z,30
2018-02-23T06:18:56.043Z,35
2018-02-23T06:19:56.275Z,35
2018-02-23T06:20:55.995Z,35
2018-02-23T06:21:56.254Z,40
2018-02-23T06:22:55.705Z,40
2018-02-23T06:23:56.209Z,45
2018-02-23T06:24:56.165Z,45
2018-02-23T06:25:55.894Z,50
2018-02-23T06:26:55.876Z,50
2018-02-23T06:27:56.129Z,50
2018-02-23T06:28:56.095Z,55
2018-02-23T06:29:56.080Z,55
2018-02-23T06:30:55.811Z,55
2018-02-23T06:31:56.044Z,55
2018-02-23T06:32:56.016Z,60
2018-02-23T06:33:56.022Z,60
2018-02-23T06:34:55.992Z,70
2018-02-23T06:35:55.953Z,70
2018-02-23T06:36:56.193Z,75
2018-02-23T06:37:55.650Z,80
2018-02-23T06:38:55.914Z,80
2018-02-23T06:39:55.876Z,85
2018-02-23T06:40:55.601Z,85
2018-02-23T06:41:55.848Z,90
2018-02-23T06:42:55.304Z,95
2018-02-23T06:43:55.801Z,95
2018-02-23T06:44:55.770Z,95
2018-02-23T06:45:55.747Z,100
2018-02-23T06:46:55.498Z,105
2018-02-23T06:47:55.722Z,105
2018-02-23T06:48:55.714Z,110
2018-02-23T06:49:55.671Z,115
2018-02-23T06:50:55.670Z,115
2018-02-23T06:51:55.651Z,120
2018-02-23T06:52:55.645Z,125
2018-02-23T06:53:55.708Z,125
2018-02-23T06:54:55.595Z,135
2018-02-23T06:55:55.566Z,135
2018-02-23T06:56:55.554Z,140
2018-02-23T06:57:55.520Z,145
2018-02-23T06:58:55.520Z,145
2018-02-23T06:59:55.496Z,150
2018-02-23T07:00:55.210Z,150
2018-02-23T07:01:55.465Z,155
2018-02-23T07:02:55.167Z,165
2018-02-23T07:03:55.273Z,160
2018-02-23T07:04:55.400Z,170
2018-02-23T07:05:55.220Z,175
2018-02-23T07:06:55.368Z,175
2018-02-23T07:07:55.354Z,180
2018-02-23T07:08:55.328Z,185
2018-02-23T07:09:55.371Z,185
2018-02-23T07:10:55.072Z,190
2018-02-23T07:11:55.030Z,190
2018-02-23T07:12:55.244Z,200
2018-02-23T07:13:55.664Z,205
2018-02-23T07:14:55.237Z,190
2018-02-23T07:15:55.223Z,210
2018-02-23T07:16:55.204Z,210
2018-02-23T07:17:54.929Z,215
2018-02-23T07:18:55.151Z,195
2018-02-23T07:19:55.129Z,220
2018-02-23T07:20:55.135Z,210
2018-02-23T07:21:55.097Z,220
2018-02-23T07:22:54.833Z,225
2018-02-23T07:23:55.071Z,230
2018-02-23T07:24:55.104Z,225
2018-02-23T07:25:54.765Z,220
2018-02-23T07:26:55.033Z,245
2018-02-23T07:27:54.738Z,240
2018-02-23T07:28:54.707Z,245
2018-02-23T07:29:54.952Z,245
2018-02-23T07:30:54.697Z,250
2018-02-23T07:31:55.080Z,250
2018-02-23T07:32:54.908Z,255
2018-02-23T07:33:54.901Z,260
2018-02-23T07:34:54.354Z,260
2018-02-23T07:35:54.862Z,265
2018-02-23T07:36:54.846Z,270
2018-02-23T07:37:54.834Z,265
2018-02-23T07:38:55.066Z,275
2018-02-23T07:39:54.554Z,270
2018-02-23T07:40:54.538Z,270
2018-02-23T07:41:54.766Z,275
2018-02-23T07:42:54.756Z,280
2018-02-23T07:43:54.492Z,245
2018-02-23T07:44:54.470Z,265
2018-02-23T07:45:54.725Z,290
2018-02-23T07:46:54.667Z,295
2018-02-23T07:47:54.156Z,285
2018-02-23T07:48:54.661Z,295
2018-02-23T07:49:54.377Z,300
2018-02-23T07:50:54.385Z,310
2018-02-23T07:51:54.616Z,250
2018-02-23T07:52:54.575Z,315
2018-02-23T07:53:54.566Z,305
2018-02-23T07:54:54.086Z,250
2018-02-23T07:55:54.294Z,240
2018-02-23T07:56:54.262Z,240
2018-02-23T07:57:54.284Z,245
2018-02-23T07:58:53.966Z,245
2018-02-23T07:59:54.221Z,250
2018-02-23T08:00:54.474Z,250
2018-02-23T08:01:54.498Z,250
2018-02-23T08:02:54.448Z,250
2018-02-23T08:03:54.393Z,250
2018-02-23T08:04:54.148Z,255
2018-02-23T08:05:54.367Z,255
2018-02-23T08:06:53.878Z,250
2018-02-23T08:07:54.193Z,255
2018-02-23T08:08:54.574Z,250
2018-02-23T08:09:54.305Z,255
2018-02-23T08:10:54.308Z,265
2018-02-23T08:11:54.281Z,275
2018-02-23T08:12:54.286Z,280
2018-02-23T08:13:54.280Z,280
2018-02-23T08:14:53.991Z,275
2018-02-23T08:15:53.957Z,280
2018-02-23T08:16:54.222Z,280
2018-02-23T08:17:54.188Z,275
2018-02-23T08:18:53.896Z,270
2018-02-23T08:19:53.905Z,265
2018-02-23T08:20:53.609Z,260
2018-02-23T08:21:53.893Z,260
2018-02-23T08:22:53.830Z,260
2018-02-23T08:23:53.805Z,265
2018-02-23T08:24:54.044Z,265
2018-02-23T08:25:54.067Z,265
2018-02-23T08:26:53.249Z,270
2018-02-23T08:27:53.771Z,270
2018-02-23T08:28:53.711Z,270
2018-02-23T08:29:53.982Z,270
2018-02-23T08:30:53.939Z,270
2018-02-23T08:31:53.934Z,270
2018-02-23T08:32:53.923Z,285
2018-02-23T08:33:53.904Z,290
2018-02-23T08:34:53.865Z,290
2018-02-23T08:35:53.861Z,290
2018-02-23T08:36:53.838Z,295
2018-02-23T08:37:53.596Z,280
2018-02-23T08:38:53.532Z,275
2018-02-23T08:39:53.334Z,275
2018-02-23T08:40:53.755Z,275
2018-02-23T08:41:54.018Z,270
2018-02-23T08:42:53.471Z,265
2018-02-23T08:43:53.208Z,265
2018-02-23T08:44:53.693Z,260
2018-02-23T08:45:53.441Z,255
2018-02-23T08:46:53.688Z,250
2018-02-23T08:47:53.665Z,250
2018-02-23T08:48:53.622Z,245
2018-02-23T08:49:53.367Z,245
2018-02-23T08:50:53.619Z,245
2018-02-23T08:51:53.337Z,245
2018-02-23T08:52:53.050Z,240
2018-02-23T08:53:53.542Z,240
2018-02-23T08:54:53.555Z,245
2018-02-23T08:55:53.526Z,245
2018-02-23T08:56:53.269Z,240
2018-02-23T08:57:53.482Z,245
2018-02-23T08:58:53.239Z,240
2018-02-23T08:59:52.744Z,240
2018-02-23T09:00:53.448Z,245
2018-02-23T09:01:53.165Z,240
2018-02-23T09:02:53.166Z,240
2018-02-23T09:03:53.396Z,240
2018-02-23T09:04:53.378Z,240
2018-02-23T09:05:53.229Z,235
2018-02-23T09:06:53.125Z,235
2018-02-23T09:07:53.080Z,240
2018-02-23T09:08:53.369Z,235
2018-02-23T09:09:53.336Z,225
2018-02-23T09:10:53.272Z,235
2018-02-23T09:11:53.017Z,230
2018-02-23T09:12:53.283Z,215
2018-02-23T09:13:53.246Z,220
2018-02-23T09:14:53.224Z,230
2018-02-23T09:15:53.203Z,225
2018-02-23T09:16:52.911Z,225
2018-02-23T09:17:53.131Z,230
2018-02-23T09:18:52.894Z,225
2018-02-23T09:19:52.839Z,225
2018-02-23T09:20:53.125Z,220
2018-02-23T09:21:52.815Z,215
2018-02-23T09:22:53.374Z,220
2018-02-23T09:23:52.514Z,220
2018-02-23T09:24:53.016Z,215
2018-02-23T09:25:52.999Z,220
2018-02-23T09:26:52.961Z,225
2018-02-23T09:27:52.950Z,235
2018-02-23T09:28:52.951Z,240
2018-02-23T09:29:52.661Z,230
2018-02-23T09:30:52.924Z,215
2018-02-23T09:31:52.649Z,215
2018-02-23T09:32:52.637Z,220
2018-02-23T09:33:52.857Z,220
2018-02-23T09:34:52.571Z,220
2018-02-23T09:35:52.286Z,220
2018-02-23T09:36:52.523Z,215
2018-02-23T09:37:52.797Z,215
2018-02-23T09:38:52.499Z,210
2018-02-23T09:39:52.779Z,210
2018-02-23T09:40:52.740Z,210
2018-02-23T09:41:52.464Z,210
2018-02-23T09:42:52.475Z,210
2018-02-23T09:43:52.675Z,215
2018-02-23T09:44:52.442Z,220
2018-02-23T09:45:52.703Z,220
2018-02-23T09:46:52.389Z,220
2018-02-23T09:47:52.346Z,220
2018-02-23T09:48:52.574Z,215
2018-02-23T09:50:52.303Z,210
2018-02-23T09:51:52.293Z,210
2018-02-23T09:52:52.256Z,210
2018-02-23T09:53:52.243Z,205
2018-02-23T09:54:52.503Z,205
2018-02-23T09:55:52.484Z,205
2018-02-23T09:56:51.981Z,205
2018-02-23T09:57:52.432Z,205
2018-02-23T09:58:52.157Z,205
2018-02-23T09:59:52.217Z,205
2018-02-23T10:00:52.495Z,205
2018-02-23T10:01:52.399Z,200
2018-02-23T10:02:52.424Z,200
2018-02-23T10:03:51.892Z,200
2018-02-23T10:04:52.071Z,200
2018-02-23T10:05:52.384Z,200
2018-02-23T10:06:52.461Z,200
2018-02-23T10:07:52.280Z,200
2018-02-23T10:08:51.730Z,200
2018-02-23T10:09:52.250Z,200
2018-02-23T10:10:52.521Z,195
2018-02-23T10:11:51.708Z,195
2018-02-23T10:12:52.172Z,195
2018-02-23T10:13:52.164Z,195
2018-02-23T10:14:52.134Z,195
2018-02-23T10:15:52.137Z,195
2018-02-23T10:16:51.611Z,195
2018-02-23T10:17:52.338Z,195
2018-02-23T10:18:51.832Z,195
2018-02-23T10:19:51.852Z,195
2018-02-23T10:20:52.197Z,195
2018-02-23T10:21:51.765Z,195
2018-02-23T10:22:51.737Z,195
2018-02-23T10:23:51.977Z,190
2018-02-23T10:24:52.012Z,190
2018-02-23T10:25:52.045Z,190
2018-02-23T10:26:51.422Z,190
2018-02-23T10:27:51.904Z,190
2018-02-23T10:28:51.657Z,190
2018-02-23T10:29:51.702Z,190
2018-02-23T10:30:51.866Z,190
2018-02-23T10:31:51.579Z,190
2018-02-23T10:32:52.135Z,190
2018-02-23T10:33:51.561Z,185
2018-02-23T10:34:51.525Z,185
2018-02-23T10:35:51.795Z,185
2018-02-23T10:36:51.773Z,190
2018-02-23T10:37:51.472Z,195
2018-02-23T10:38:51.469Z,190
2018-02-23T10:39:51.705Z,190
2018-02-23T10:40:51.177Z,190
2018-02-23T10:41:51.446Z,185
2018-02-23T10:42:51.722Z,185
2018-02-23T10:43:51.643Z,185
2018-02-23T10:44:51.364Z,185
2018-02-23T10:45:51.851Z,185
2018-02-23T10:46:51.330Z,185
2018-02-23T10:47:51.069Z,185
2018-02-23T10:48:50.769Z,185
2018-02-23T10:49:51.535Z,180
2018-02-23T10:50:51.506Z,180
2018-02-23T10:51:51.631Z,180
2018-02-23T10:52:51.476Z,185
2018-02-23T10:53:51.468Z,185
2018-02-23T10:54:51.194Z,180
2018-02-23T10:55:51.207Z,180
2018-02-23T10:56:51.155Z,180
2018-02-23T10:57:51.250Z,185
2018-02-23T10:58:51.109Z,185
2018-02-23T10:59:51.413Z,185
2018-02-23T11:00:51.121Z,185
2018-02-23T11:01:51.335Z,180
2018-02-23T11:02:51.045Z,185
2018-02-23T11:03:51.044Z,180
2018-02-23T11:04:51.301Z,185
2018-02-23T11:05:51.064Z,185
2018-02-23T11:06:50.980Z,180
2018-02-23T11:07:51.266Z,180
2018-02-23T11:08:51.237Z,185
2018-02-23T11:09:51.178Z,180
2018-02-23T11:10:51.193Z,180
2018-02-23T11:11:50.910Z,180
2018-02-23T11:12:51.160Z,180
2018-02-23T11:13:51.120Z,180
2018-02-23T11:14:50.901Z,180
2018-02-23T11:15:51.095Z,180
2018-02-23T11:16:51.354Z,180
2018-02-23T11:17:51.042Z,180
2018-02-23T11:18:50.763Z,180
2018-02-23T11:19:51.019Z,180
2018-02-23T11:20:50.484Z,180
2018-02-23T11:21:50.724Z,180
2018-02-23T11:22:50.444Z,180
2018-02-23T11:23:50.423Z,180
2018-02-23T11:24:50.924Z,180
2018-02-23T11:25:50.909Z,180
2018-02-23T11:26:50.668Z,180
2018-02-23T11:27:50.366Z,180
2018-02-23T11:28:50.348Z,180
2018-02-23T11:29:50.578Z,180
2018-02-23T11:30:50.829Z,180
2018-02-23T11:31:50.826Z,180
2018-02-23T11:32:50.811Z,180
2018-02-23T11:33:50.247Z,180
2018-02-23T11:34:50.795Z,180
2018-02-23T11:35:50.475Z,180
2018-02-23T11:36:50.731Z,180
2018-02-23T11:37:50.494Z,180
2018-02-23T11:38:50.712Z,180
2018-02-23T11:39:50.409Z,180
2018-02-23T11:40:50.644Z,180
2018-02-23T11:41:50.654Z,180
2018-02-23T11:42:50.625Z,180
2018-02-23T11:43:50.358Z,180
2018-02-23T11:44:50.616Z,180
2018-02-23T11:45:50.320Z,180
2018-02-23T11:46:50.286Z,180
2018-02-23T11:47:50.511Z,175
2018-02-23T11:48:50.257Z,175
2018-02-23T11:49:50.247Z,175
2018-02-23T11:50:50.464Z,175
2018-02-23T11:51:50.473Z,175
2018-02-23T11:52:49.940Z,175
2018-02-23T11:53:50.168Z,175
2018-02-23T11:54:50.403Z,175
2018-02-23T11:55:50.429Z,175
2018-02-23T11:56:50.467Z,175
2018-02-23T11:57:50.112Z,175
2018-02-23T11:58:50.364Z,175
2018-02-23T11:59:49.547Z,175
2018-02-23T12:00:50.134Z,175
2018-02-23T12:01:50.327Z,175
2018-02-23T12:02:50.041Z,175
2018-02-23T12:03:50.276Z,175
2018-02-23T12:04:50.269Z,175
2018-02-23T12:05:50.262Z,180
2018-02-23T12:06:49.962Z,180
2018-02-23T12:07:50.195Z,180
2018-02-23T12:08:50.234Z,180
2018-02-23T12:09:49.908Z,180
2018-02-23T12:10:50.144Z,180
2018-02-23T12:11:49.887Z,180
2018-02-23T12:12:50.134Z,180
2018-02-23T12:13:49.874Z,180
2018-02-23T12:14:50.094Z,180
2018-02-23T12:15:50.116Z,180
2018-02-23T12:16:49.803Z,180
2018-02-23T12:17:50.029Z,185
2018-02-23T12:18:50.003Z,180
2018-02-23T12:19:50.243Z,180
2018-02-23T12:20:49.981Z,180
2018-02-23T12:21:49.982Z,180
2018-02-23T12:22:49.691Z,180
2018-02-23T12:23:49.693Z,180
2018-02-23T12:24:50.224Z,180
2018-02-23T12:25:49.892Z,180
2018-02-23T12:26:49.638Z,180
2018-02-23T12:27:49.910Z,185
2018-02-23T12:28:49.587Z,185
2018-02-23T12:29:49.831Z,185
2018-02-23T12:30:49.863Z,185
2018-02-23T12:31:49.276Z,180
2018-02-23T12:32:49.804Z,185
2018-02-23T12:33:49.807Z,185
2018-02-23T12:34:49.508Z,185
2018-02-23T12:35:49.237Z,185
2018-02-23T12:36:49.193Z,180
2018-02-23T12:37:49.712Z,180
2018-02-23T12:38:49.695Z,180
2018-02-23T12:39:49.671Z,180
2018-02-23T12:40:49.652Z,175
2018-02-23T12:41:49.644Z,175
2018-02-23T12:42:49.356Z,170
2018-02-23T12:43:49.608Z,175
2018-02-23T12:44:49.399Z,170
2018-02-23T12:45:49.594Z,170
2018-02-23T12:46:49.309Z,170
2018-02-23T12:47:49.277Z,170
2018-02-23T12:48:49.520Z,170
2018-02-23T12:49:48.997Z,170
2018-02-23T12:50:49.467Z,170
2018-02-23T12:51:49.273Z,170
2018-02-23T12:52:48.946Z,165
2018-02-23T12:53:49.444Z,170
2018-02-23T12:54:49.426Z,170
2018-02-23T12:55:49.400Z,170
2018-02-23T12:56:49.137Z,170
2018-02-23T12:57:49.120Z,170
2018-02-23T12:58:49.354Z,170
2018-02-23T12:59:49.451Z,170
2018-02-23T13:00:49.335Z,165
2018-02-23T13:01:49.304Z,165
2018-02-23T13:02:48.774Z,165
2018-02-23T13:03:49.007Z,165
2018-02-23T13:04:49.002Z,165
2018-02-23T13:05:49.059Z,165
2018-02-23T13:06:48.987Z,160
2018-02-23T13:07:48.974Z,160
2018-02-23T13:08:48.944Z,165
2018-02-23T13:09:48.928Z,165
2018-02-23T13:10:48.928Z,160
2018-02-23T13:11:48.893Z,160
2018-02-23T13:12:48.897Z,160
2018-02-23T13:13:48.861Z,160
2018-02-23T13:14:49.098Z,160
2018-02-23T13:15:48.832Z,165
2018-02-23T13:16:48.801Z,165
2018-02-23T13:17:49.091Z,165
2018-02-23T13:18:49.035Z,165
2018-02-23T13:19:48.790Z,165
2018-02-23T13:20:48.990Z,165
2018-02-23T13:21:49.270Z,165
2018-02-23T13:22:48.967Z,165
2018-02-23T13:23:49.062Z,165
2018-02-23T13:24:48.674Z,165
2018-02-23T13:25:48.952Z,165
2018-02-23T13:26:48.397Z,160
2018-02-23T13:27:48.627Z,160
2018-02-23T13:28:48.862Z,160
2018-02-23T13:29:48.921Z,160
2018-02-23T13:30:48.565Z,160
2018-02-23T13:31:48.584Z,160
2018-02-23T13:32:48.546Z,160
2018-02-23T13:33:48.550Z,160
2018-02-23T13:34:49.071Z,160
2018-02-23T13:35:48.486Z,160
2018-02-23T13:36:48.461Z,160
2018-02-23T13:37:48.471Z,160
2018-02-23T13:38:48.443Z,160
2018-02-23T13:39:48.683Z,160
2018-02-23T13:40:48.415Z,160
2018-02-23T13:41:48.398Z,160
2018-02-23T13:42:48.626Z,160
2018-02-23T13:43:48.617Z,160
2018-02-23T13:44:48.598Z,155
2018-02-23T13:45:48.570Z,155
2018-02-23T13:46:48.569Z,155
2018-02-23T13:47:48.564Z,155
2018-02-23T13:48:48.525Z,155
2018-02-23T13:49:48.550Z,155
2018-02-23T13:50:48.499Z,160
2018-02-23T13:51:48.497Z,160
2018-02-23T13:52:48.707Z,160
2018-02-23T13:53:48.215Z,160
2018-02-23T13:54:48.446Z,160
2018-02-23T13:55:48.156Z,160
2018-02-23T13:56:48.402Z,160
2018-02-23T13:57:48.389Z,165
2018-02-23T13:58:48.132Z,160
2018-02-23T13:59:48.339Z,160
2018-02-23T14:00:48.337Z,160
2018-02-23T14:01:48.054Z,160
2018-02-23T14:02:48.289Z,160
2018-02-23T14:03:48.308Z,160
2018-02-23T14:04:48.281Z,160
2018-02-23T14:05:48.285Z,160
2018-02-23T14:06:47.721Z,160
2018-02-23T14:07:47.962Z,160
2018-02-23T14:08:47.948Z,160
2018-02-23T14:09:48.213Z,160
2018-02-23T14:10:47.904Z,160
2018-02-23T14:11:48.274Z,155
2018-02-23T14:12:48.149Z,155